Time;durP1;ratioP1;P1;durP2;ratioP2;P2;SDS_P1;SDS_P2;PMS_P1;PMS_P2;Temp;Humidity;BMP_temperature;BMP_pressure;BME280_temperature;BME280_humidity;BME280_pressure;Samples;Min_cycle;Max_cycle;Signal;HPM_P1;HPM_P2
2021/04/14 00:01:39;;;;;;;;;;;;;;;11.88;67.16;99352.31;5054984;28;19917;-77
2021/04/14 00:04:07;;;;;;;;;;;;;;;11.94;65.72;99354.22;5055228;28;19913;-76
2021/04/14 00:06:33;;;;;;;;;;;;;;;11.99;65.90;99355.28;5055215;28;20330;-77
2021/04/14 00:08:59;;;;;;;;;;;;;;;12.04;65.00;99354.72;5053923;28;19923;-76
2021/04/14 00:11:24;;;;;;;;;;;;;;;12.01;66.29;99358.56;5057143;28;19920;-77
2021/04/14 00:13:49;;;;;;;;;;;;;;;12.07;65.79;99357.78;5058994;28;19946;-76
2021/04/14 00:16:16;;;;;;;;;;;;;;;12.15;65.87;99361.31;5058078;28;19919;-76
2021/04/14 00:18:42;;;;;;;;;;;;;;;12.22;65.68;99352.41;5057760;28;19913;-74
2021/04/14 00:21:07;;;;;;;;;;;;;;;12.27;66.03;99341.22;5058825;28;19913;-75
2021/04/14 00:23:33;;;;;;;;;;;;;;;12.32;65.72;99323.75;5058688;28;19948;-74
2021/04/14 00:25:58;;;;;;;;;;;;;;;12.37;66.92;99312.59;5058808;28;19967;-74
2021/04/14 00:28:24;;;;;;;;;;;;;;;12.42;65.30;99312.81;5058756;28;19962;-76
2021/04/14 00:30:50;;;;;;;;;;;;;;;12.45;65.51;99299.19;5058544;28;19978;-75
2021/04/14 00:33:16;;;;;;;;;;;;;;;12.48;66.60;99313.84;5058819;28;20008;-75
2021/04/14 00:35:41;;;;;;;;;;;;;;;12.46;66.25;99329.94;5058440;28;20292;-75
2021/04/14 00:38:07;;;;;;;;;;;;;;;12.46;63.74;99335.25;5058357;28;19913;-77
2021/04/14 00:40:35;;;;;;;;;;;;;;;12.43;64.83;99337.47;5058400;28;20239;-77
2021/04/14 00:43:00;;;;;;;;;;;;;;;12.35;66.26;99325.19;5058644;28;20381;-76
2021/04/14 00:45:26;;;;;;;;;;;;;;;12.35;66.23;99326.00;5058403;28;19956;-76
2021/04/14 00:47:52;;;;;;;;;;;;;;;12.39;65.61;99311.38;5058346;28;19920;-76
2021/04/14 00:50:20;;;;;;;;;;;;;;;12.43;67.06;99316.28;5058381;28;19913;-75
2021/04/14 00:52:45;;;;;;;;;;;;;;;12.44;65.97;99316.09;5058299;28;20038;-76
2021/04/14 00:55:13;;;;;;;;;;;;;;;12.48;66.39;99311.22;5058257;28;20019;-77
2021/04/14 00:57:38;;;;;;;;;;;;;;;12.50;64.90;99310.00;5058134;28;20136;-76
2021/04/14 01:00:06;;;;;;;;;;;;;;;12.49;66.63;99302.25;5040488;28;19963;-77
2021/04/14 01:02:31;;;;;;;;;;;;;;;12.51;68.73;99297.56;5057911;28;20318;-77
2021/04/14 01:04:56;;;;;;;;;;;;;;;12.54;66.11;99294.53;5057955;28;20001;-75
2021/04/14 01:07:22;;;;;;;;;;;;;;;12.50;66.41;99291.47;5057930;28;19987;-76
2021/04/14 01:09:47;;;;;;;;;;;;;;;12.54;65.15;99291.88;5057703;28;19967;-76
2021/04/14 01:12:12;;;;;;;;;;;;;;;12.54;65.46;99292.72;5057982;28;19912;-77
2021/04/14 01:14:38;;;;;;;;;;;;;;;12.52;65.81;99291.28;5057693;28;19978;-78
2021/04/14 01:17:03;;;;;;;;;;;;;;;12.48;65.63;99285.56;5056774;28;19919;-76
2021/04/14 01:19:29;;;;;;;;;;;;;;;12.45;67.96;99285.13;5057737;28;19917;-76
2021/04/14 01:21:54;;;;;;;;;;;;;;;12.46;66.77;99274.34;5057039;28;19913;-75
2021/04/14 01:24:20;;;;;;;;;;;;;;;12.53;65.95;99274.38;5057590;28;20345;-77
2021/04/14 01:26:46;;;;;;;;;;;;;;;12.52;66.52;99268.25;5057514;28;20227;-77
2021/04/14 01:29:12;;;;;;;;;;;;;;;12.53;65.66;99269.06;5057639;28;19920;-76
2021/04/14 01:31:37;;;;;;;;;;;;;;;12.51;66.26;99249.91;5057648;28;19912;-77
2021/04/14 01:34:03;;;;;;;;;;;;;;;12.48;67.07;99256.41;5057464;28;20258;-78
2021/04/14 01:36:28;;;;;;;;;;;;;;;12.44;67.50;99254.38;5057523;28;19917;-77
2021/04/14 01:38:53;;;;;;;;;;;;;;;12.45;65.89;99262.13;5057378;28;20224;-77
2021/04/14 01:41:19;;;;;;;;;;;;;;;12.36;66.07;99252.69;5057416;28;19912;-75
2021/04/14 01:43:44;;;;;;;;;;;;;;;12.34;67.07;99257.38;5057313;28;20297;-77
2021/04/14 01:46:10;;;;;;;;;;;;;;;12.35;66.88;99248.41;5057545;28;19913;-77
2021/04/14 01:48:35;;;;;;;;;;;;;;;12.38;66.07;99246.19;5057176;28;19996;-77
2021/04/14 01:51:00;;;;;;;;;;;;;;;12.40;66.90;99240.72;5057214;28;19943;-76
2021/04/14 01:53:26;;;;;;;;;;;;;;;12.41;63.51;99235.22;5057215;28;20000;-76
2021/04/14 01:55:51;;;;;;;;;;;;;;;12.43;65.41;99232.38;5055771;28;20341;-76
2021/04/14 01:58:18;;;;;;;;;;;;;;;12.39;66.84;99225.84;5057215;28;19960;-77
2021/04/14 02:00:50;;;;;;;;;;;;;;;12.36;67.68;99237.63;5056837;28;19916;-77
2021/04/14 02:03:15;;;;;;;;;;;;;;;12.37;65.49;99231.31;5057195;28;19971;-76
2021/04/14 02:05:41;;;;;;;;;;;;;;;12.37;67.50;99230.50;5056790;28;19916;-76
2021/04/14 02:08:07;;;;;;;;;;;;;;;12.37;65.10;99233.16;5056922;28;20315;-76
2021/04/14 02:10:33;;;;;;;;;;;;;;;12.33;65.52;99231.91;5056548;28;19917;-77
2021/04/14 02:13:00;;;;;;;;;;;;;;;12.29;65.79;99230.69;5056772;28;19917;-76
2021/04/14 02:15:27;;;;;;;;;;;;;;;12.21;64.57;99226.38;5056641;28;19948;-76
2021/04/14 02:17:53;;;;;;;;;;;;;;;12.09;67.08;99225.28;5055478;28;19920;-76
2021/04/14 02:20:18;;;;;;;;;;;;;;;12.04;66.51;99223.22;5056799;28;19917;-77
2021/04/14 02:22:43;;;;;;;;;;;;;;;12.04;65.99;99219.75;5055415;28;20332;-76
2021/04/14 02:25:10;;;;;;;;;;;;;;;12.03;65.58;99229.53;5056456;28;20311;-76
2021/04/14 02:27:35;;;;;;;;;;;;;;;12.00;65.58;99227.28;5056448;28;19930;-75
2021/04/14 02:30:01;;;;;;;;;;;;;;;11.94;65.92;99220.13;5056555;28;19921;-75
2021/04/14 02:32:26;;;;;;;;;;;;;;;11.90;67.14;99208.28;5056624;28;19913;-77
2021/04/14 02:34:51;;;;;;;;;;;;;;;11.93;67.24;99217.66;5055199;28;19939;-76
2021/04/14 02:37:17;;;;;;;;;;;;;;;11.94;65.43;99212.19;5056438;28;19952;-75
2021/04/14 02:39:42;;;;;;;;;;;;;;;11.90;65.61;99215.41;5056389;28;20337;-77
2021/04/14 02:42:08;;;;;;;;;;;;;;;11.84;67.22;99210.84;5056244;28;19923;-77
2021/04/14 02:44:33;;;;;;;;;;;;;;;11.85;67.21;99223.06;5056075;28;19916;-75
2021/04/14 02:46:58;;;;;;;;;;;;;;;11.88;66.92;99215.56;5056183;28;19920;-75
2021/04/14 02:49:24;;;;;;;;;;;;;;;11.87;65.49;99199.88;5056112;28;20315;-77
2021/04/14 02:51:50;;;;;;;;;;;;;;;11.84;67.73;99206.38;5054963;28;19978;-76
2021/04/14 02:54:16;;;;;;;;;;;;;;;11.84;66.63;99208.22;5055002;28;19916;-75
2021/04/14 02:56:41;;;;;;;;;;;;;;;11.85;65.06;99215.97;5055494;28;19924;-76
2021/04/14 02:59:06;;;;;;;;;;;;;;;11.80;65.69;99215.72;5056028;28;20240;-75
2021/04/14 03:01:31;;;;;;;;;;;;;;;11.75;65.84;99218.09;5055820;28;19913;-75
2021/04/14 03:03:57;;;;;;;;;;;;;;;11.75;65.57;99207.53;5056113;28;19979;-77
2021/04/14 03:06:22;;;;;;;;;;;;;;;11.72;67.41;99206.06;5055824;28;19959;-77
2021/04/14 03:08:47;;;;;;;;;;;;;;;11.74;66.39;99206.69;5055772;28;19916;-75
2021/04/14 03:11:13;;;;;;;;;;;;;;;11.74;65.73;99200.59;5055676;28;20326;-76
2021/04/14 03:13:38;;;;;;;;;;;;;;;11.69;65.82;99205.66;5055519;28;19966;-75
2021/04/14 03:16:03;;;;;;;;;;;;;;;11.67;67.08;99216.41;5055878;28;19978;-77
2021/04/14 03:18:29;;;;;;;;;;;;;;;11.65;67.02;99212.34;5055564;28;19920;-76
2021/04/14 03:20:54;;;;;;;;;;;;;;;11.64;65.54;99200.94;5055432;28;19917;-76
2021/04/14 03:23:20;;;;;;;;;;;;;;;11.60;65.99;99204.97;5055503;28;20392;-75
2021/04/14 03:25:45;;;;;;;;;;;;;;;11.61;66.13;99198.69;5054299;28;19913;-76
2021/04/14 03:28:12;;;;;;;;;;;;;;;11.58;66.97;99203.53;5055408;28;19913;-78
2021/04/14 03:30:38;;;;;;;;;;;;;;;11.57;66.54;99201.91;5055222;28;19919;-78
2021/04/14 03:33:03;;;;;;;;;;;;;;;11.57;65.92;99213.31;5055402;28;20245;-77
2021/04/14 03:35:29;;;;;;;;;;;;;;;11.54;67.30;99218.16;5055353;28;19921;-76
2021/04/14 03:37:54;;;;;;;;;;;;;;;11.36;66.86;99214.16;5054242;28;19920;-77
2021/04/14 03:40:20;;;;;;;;;;;;;;;11.34;65.29;99215.34;5055357;28;19999;-78
2021/04/14 03:42:45;;;;;;;;;;;;;;;11.27;66.45;99217.94;5055082;28;20004;-76
2021/04/14 03:45:17;;;;;;;;;;;;;;;11.23;66.34;99214.06;5054847;28;19920;-77
2021/04/14 03:47:42;;;;;;;;;;;;;;;11.21;66.08;99216.06;5055157;28;19913;-77
2021/04/14 03:50:09;;;;;;;;;;;;;;;11.20;68.04;99232.94;5054104;28;19916;-76
2021/04/14 03:52:35;;;;;;;;;;;;;;;11.24;66.72;99223.63;5054984;28;19944;-75
2021/04/14 03:55:00;;;;;;;;;;;;;;;11.30;66.25;99225.50;5053905;28;20346;-76
2021/04/14 03:57:27;;;;;;;;;;;;;;;11.31;66.13;99223.66;5054057;28;21420;-77
2021/04/14 03:59:52;;;;;;;;;;;;;;;11.29;67.41;99226.50;5054820;28;19924;-76
2021/04/14 04:02:17;;;;;;;;;;;;;;;11.32;67.70;99223.47;5054178;28;19913;-77
2021/04/14 04:04:43;;;;;;;;;;;;;;;11.35;67.51;99222.28;5054781;28;19913;-76
2021/04/14 04:07:08;;;;;;;;;;;;;;;11.32;67.02;99222.66;5054959;28;20227;-75
2021/04/14 04:09:33;;;;;;;;;;;;;;;11.35;66.66;99215.16;5053811;28;19919;-76
2021/04/14 04:11:59;;;;;;;;;;;;;;;11.34;66.93;99220.63;5055055;28;20007;-76
2021/04/14 04:14:27;;;;;;;;;;;;;;;11.32;68.12;99217.38;5054810;28;19924;-76
2021/04/14 04:16:53;;;;;;;;;;;;;;;11.29;67.77;99218.56;5054600;28;19913;-76
2021/04/14 04:19:18;;;;;;;;;;;;;;;11.28;67.79;99229.34;5054940;28;19967;-75
2021/04/14 04:21:43;;;;;;;;;;;;;;;11.28;67.07;99243.38;5054621;28;20007;-75
2021/04/14 04:24:09;;;;;;;;;;;;;;;11.27;66.27;99236.44;5054849;28;19912;-76
2021/04/14 04:26:34;;;;;;;;;;;;;;;11.30;68.28;99243.19;5053567;28;19982;-75
2021/04/14 04:28:59;;;;;;;;;;;;;;;11.35;68.13;99238.94;5054777;28;20330;-77
2021/04/14 04:31:24;;;;;;;;;;;;;;;11.39;67.84;99247.31;5054730;28;20015;-75
2021/04/14 04:33:50;;;;;;;;;;;;;;;11.43;67.53;99254.69;5054466;28;20285;-76
2021/04/14 04:36:15;;;;;;;;;;;;;;;11.48;67.32;99280.53;5054563;28;19913;-77
2021/04/14 04:38:40;;;;;;;;;;;;;;;11.53;66.20;99293.19;5054546;28;20341;-77
2021/04/14 04:41:06;;;;;;;;;;;;;;;11.23;65.56;99295.97;5053812;28;20392;-76
2021/04/14 04:43:31;;;;;;;;;;;;;;;11.02;65.63;99295.91;5054657;28;19913;-76
2021/04/14 04:45:57;;;;;;;;;;;;;;;10.97;65.84;99307.06;5054306;28;19913;-76
2021/04/14 04:48:22;;;;;;;;;;;;;;;10.99;65.60;99309.50;5054568;28;20012;-77
2021/04/14 04:50:48;;;;;;;;;;;;;;;10.91;65.46;99317.53;5054538;28;20011;-76
2021/04/14 04:53:15;;;;;;;;;;;;;;;10.91;66.07;99326.28;5054515;28;19913;-76
2021/04/14 04:55:41;;;;;;;;;;;;;;;10.95;66.31;99329.38;5053132;28;19928;-76
2021/04/14 04:58:06;;;;;;;;;;;;;;;10.95;67.41;99322.25;5056909;28;19917;-75
2021/04/14 05:00:32;;;;;;;;;;;;;;;11.01;66.29;99324.16;5058016;28;19962;-75
2021/04/14 05:02:57;;;;;;;;;;;;;;;11.03;66.28;99323.97;5056901;28;20003;-76
2021/04/14 05:05:25;;;;;;;;;;;;;;;11.10;65.49;99319.59;5058230;28;19916;-79
2021/04/14 05:07:50;;;;;;;;;;;;;;;10.98;65.79;99321.06;5056555;28;19913;-78
2021/04/14 05:10:16;;;;;;;;;;;;;;;10.95;66.63;99322.25;5058123;28;19999;-77
2021/04/14 05:12:41;;;;;;;;;;;;;;;10.95;67.46;99313.53;5058106;28;19913;-77
2021/04/14 05:15:07;;;;;;;;;;;;;;;11.01;67.17;99315.41;5058449;28;19942;-77
2021/04/14 05:17:32;;;;;;;;;;;;;;;10.92;67.60;99314.72;5057996;28;20007;-75
2021/04/14 05:19:58;;;;;;;;;;;;;;;11.02;67.57;99317.06;5057831;28;20235;-76
2021/04/14 05:22:24;;;;;;;;;;;;;;;11.05;68.00;99320.16;5056309;28;19919;-75
2021/04/14 05:24:49;;;;;;;;;;;;;;;11.18;67.25;99313.41;5057617;28;20369;-78
2021/04/14 05:27:15;;;;;;;;;;;;;;;11.21;68.65;99319.13;5056451;28;19921;-74
2021/04/14 05:29:41;;;;;;;;;;;;;;;11.19;68.14;99322.97;5057596;28;19912;-77
2021/04/14 05:32:06;;;;;;;;;;;;;;;11.19;66.83;99312.38;5057639;28;19971;-77
2021/04/14 05:34:31;;;;;;;;;;;;;;;11.17;68.44;99309.13;5057353;28;19990;-76
2021/04/14 05:36:57;;;;;;;;;;;;;;;11.26;67.66;99306.16;5056477;28;20286;-76
2021/04/14 05:39:22;;;;;;;;;;;;;;;11.32;66.05;99312.53;5056672;28;19916;-77
2021/04/14 05:41:47;;;;;;;;;;;;;;;11.20;69.27;99309.56;5054503;28;19987;-75
2021/04/14 05:44:12;;;;;;;;;;;;;;;11.18;69.17;99306.28;5053738;28;19923;-78
2021/04/14 05:46:38;;;;;;;;;;;;;;;11.19;68.82;99307.91;5055389;28;20015;-75
2021/04/14 05:49:03;;;;;;;;;;;;;;;11.24;70.05;99310.00;5056160;28;19974;-76
2021/04/14 05:51:29;;;;;;;;;;;;;;;11.26;69.05;99314.09;5056964;28;19916;-74
2021/04/14 05:53:55;;;;;;;;;;;;;;;11.26;69.81;99314.09;5060552;28;19925;-74
2021/04/14 05:56:21;;;;;;;;;;;;;;;11.39;70.28;99313.41;5072510;28;19917;-77
2021/04/14 05:58:47;;;;;;;;;;;;;;;11.52;70.12;99313.53;5074356;28;20296;-77
2021/04/14 06:01:14;;;;;;;;;;;;;;;11.70;69.01;99305.13;5056529;28;19917;-76
2021/04/14 06:03:39;;;;;;;;;;;;;;;11.77;67.00;99306.84;5056173;28;19920;-77
2021/04/14 06:06:04;;;;;;;;;;;;;;;11.85;67.75;99308.53;5051774;28;19912;-79
2021/04/14 06:08:30;;;;;;;;;;;;;;;11.96;67.93;99307.22;5056587;28;19927;-78
2021/04/14 06:10:57;;;;;;;;;;;;;;;12.13;65.05;99305.09;5056540;28;19912;-76
2021/04/14 06:13:22;;;;;;;;;;;;;;;12.21;67.01;99307.59;5055804;28;19931;-77
2021/04/14 06:15:47;;;;;;;;;;;;;;;12.23;64.67;99308.22;5055752;28;19921;-76
2021/04/14 06:18:13;;;;;;;;;;;;;;;12.14;66.95;99302.25;5056547;28;19913;-78
2021/04/14 06:20:39;;;;;;;;;;;;;;;12.23;67.92;99295.81;5054961;28;19921;-75
2021/04/14 06:23:06;;;;;;;;;;;;;;;12.33;66.60;99296.28;5056179;28;19944;-75
2021/04/14 06:25:36;;;;;;;;;;;;;;;12.42;66.91;99302.22;5056368;28;20258;-76
2021/04/14 06:30:30;;;;;;;;;;;;;;;12.52;65.56;99301.88;5059531;28;19924;-76
2021/04/14 06:32:56;;;;;;;;;;;;;;;12.54;65.06;99295.34;5056244;28;19971;-77
2021/04/14 06:35:22;;;;;;;;;;;;;;;12.65;62.72;99300.13;5055966;28;20312;-76
2021/04/14 06:37:48;;;;;;;;;;;;;;;12.67;63.98;99303.41;5055999;28;20017;-76
2021/04/14 06:43:11;;;;;;;;;;;;;;;12.87;62.98;99300.00;5050287;28;20015;-77
2021/04/14 06:45:42;;;;;;;;;;;;;;;12.99;61.90;99296.56;5051475;28;20019;-75
2021/04/14 06:48:10;;;;;;;;;;;;;;;12.97;62.50;99289.84;5051492;28;19924;-78
2021/04/14 06:50:35;;;;;;;;;;;;;;;13.00;63.07;99290.25;5035775;28;19913;-76
2021/04/14 06:53:22;;;;;;;;;;;;;;;13.04;61.67;99288.84;5045601;28;19921;-76
2021/04/14 06:55:55;;;;;;;;;;;;;;;13.17;61.42;99293.38;5053490;28;19920;-76
2021/04/14 06:58:22;;;;;;;;;;;;;;;13.27;61.48;99291.16;5054268;28;19928;-76
2021/04/14 07:00:56;;;;;;;;;;;;;;;13.38;61.39;99296.88;5055015;28;20315;-77
2021/04/14 07:03:21;;;;;;;;;;;;;;;13.45;60.87;99295.91;5052474;28;19920;-76
2021/04/14 07:05:48;;;;;;;;;;;;;;;13.56;60.04;99289.19;5053643;28;19966;-75
2021/04/14 07:08:19;;;;;;;;;;;;;;;13.67;59.58;99294.69;5055111;28;19924;-77
2021/04/14 07:10:45;;;;;;;;;;;;;;;13.73;58.98;99298.38;5054084;28;19917;-74
2021/04/14 07:13:11;;;;;;;;;;;;;;;13.79;58.86;99297.56;5068762;28;19917;-77
2021/04/14 07:15:37;;;;;;;;;;;;;;;13.84;58.89;99300.41;5054413;28;19917;-77
2021/04/14 07:18:06;;;;;;;;;;;;;;;13.94;58.75;99305.31;5053631;28;19917;-76
2021/04/14 07:20:31;;;;;;;;;;;;;;;13.95;58.46;99299.78;5058807;28;19923;-78
2021/04/14 07:23:06;;;;;;;;;;;;;;;14.05;58.09;99296.72;5054997;28;19912;-76
2021/04/14 07:25:50;;;;;;;;;;;;;;;14.15;58.13;99297.13;5055135;28;19943;-76
2021/04/14 07:28:15;;;;;;;;;;;;;;;14.27;58.02;99299.97;5046233;28;19921;-77
2021/04/14 07:30:46;;;;;;;;;;;;;;;14.37;57.48;99302.19;5053487;28;20318;-78
2021/04/14 07:33:37;;;;;;;;;;;;;;;14.44;57.36;99293.22;5051485;28;19924;-76
2021/04/14 07:36:05;;;;;;;;;;;;;;;14.54;57.18;99290.13;5053686;28;19932;-75
2021/04/14 07:38:36;;;;;;;;;;;;;;;14.63;57.13;99302.97;5061450;28;19917;-75
2021/04/14 07:41:23;;;;;;;;;;;;;;;14.74;57.03;99298.00;5073075;28;19924;-78
2021/04/14 07:43:57;;;;;;;;;;;;;;;14.82;56.64;99293.28;5056956;28;19916;-77
2021/04/14 07:46:24;;;;;;;;;;;;;;;14.90;56.43;99293.06;5055948;28;19913;-77
2021/04/14 07:48:54;;;;;;;;;;;;;;;14.95;55.81;99297.75;5057384;28;19959;-77
2021/04/14 07:51:21;;;;;;;;;;;;;;;14.90;56.35;99297.56;5037524;28;19913;-77
2021/04/14 07:53:56;;;;;;;;;;;;;;;14.99;55.97;99293.63;5055000;28;19912;-77
2021/04/14 07:56:22;;;;;;;;;;;;;;;15.12;55.93;99290.09;5054297;28;19980;-76
2021/04/14 07:58:50;;;;;;;;;;;;;;;15.21;55.72;99283.47;5053846;28;19917;-77
2021/04/14 08:01:17;;;;;;;;;;;;;;;15.27;55.43;99283.44;5056039;28;19917;-75
2021/04/14 08:03:44;;;;;;;;;;;;;;;15.32;55.06;99288.13;5054713;28;20007;-76
2021/04/14 08:06:24;;;;;;;;;;;;;;;15.34;55.01;99278.06;5054769;28;20015;-76
2021/04/14 08:08:49;;;;;;;;;;;;;;;15.45;54.53;99280.03;5052042;28;20253;-77
2021/04/14 08:11:26;;;;;;;;;;;;;;;15.57;53.97;99280.16;5053433;28;19933;-77
2021/04/14 08:13:51;;;;;;;;;;;;;;;15.62;54.60;99282.22;5053522;28;19917;-75
2021/04/14 08:16:23;;;;;;;;;;;;;;;15.57;53.79;99275.69;5054493;28;20313;-74
2021/04/14 08:18:58;;;;;;;;;;;;;;;15.53;53.76;99276.28;5054359;28;19913;-76
2021/04/14 08:21:25;;;;;;;;;;;;;;;15.51;52.72;99276.50;5053077;28;20255;-75
2021/04/14 08:23:52;;;;;;;;;;;;;;;15.48;54.02;99271.63;5054552;28;19913;-74
2021/04/14 08:26:19;;;;;;;;;;;;;;;15.58;53.87;99277.31;5053868;28;20365;-78
2021/04/14 08:28:46;;;;;;;;;;;;;;;15.69;53.84;99269.69;5051168;28;19916;-76
2021/04/14 08:31:17;;;;;;;;;;;;;;;15.74;53.45;99269.84;5051529;28;19975;-77
2021/04/14 08:33:42;;;;;;;;;;;;;;;15.87;52.46;99261.72;5039884;28;19913;-77
2021/04/14 08:36:13;;;;;;;;;;;;;;;16.03;50.88;99268.34;5058200;28;19913;-78
2021/04/14 08:38:38;;;;;;;;;;;;;;;16.23;49.74;99266.28;5058081;28;19923;-77
2021/04/14 08:41:04;;;;;;;;;;;;;;;16.34;49.37;99262.88;5058390;28;19913;-76
2021/04/14 08:43:41;;;;;;;;;;;;;;;16.58;47.98;99261.19;5058188;28;19962;-76
2021/04/14 08:46:11;;;;;;;;;;;;;;;16.79;49.38;99251.94;5058793;28;19935;-76
2021/04/14 08:48:37;;;;;;;;;;;;;;;17.05;49.97;99256.09;5056119;28;19956;-76
2021/04/14 08:51:04;;;;;;;;;;;;;;;17.27;45.74;99253.75;5038052;28;19970;-77
2021/04/14 08:53:34;;;;;;;;;;;;;;;17.35;45.77;99256.91;5037120;28;19970;-76
2021/04/14 08:56:00;;;;;;;;;;;;;;;17.38;45.42;99258.31;5037592;28;19933;-77
2021/04/14 08:58:25;;;;;;;;;;;;;;;17.28;44.02;99258.06;5040773;28;20232;-77
2021/04/14 09:00:51;;;;;;;;;;;;;;;17.07;47.23;99256.69;5058515;28;20008;-78
2021/04/14 09:03:21;;;;;;;;;;;;;;;16.94;46.93;99264.88;5065845;28;19916;-78
2021/04/14 09:05:47;;;;;;;;;;;;;;;16.83;47.66;99259.28;5058037;28;20285;-76
2021/04/14 09:08:17;;;;;;;;;;;;;;;16.61;47.30;99258.09;5057779;28;19917;-80
2021/04/14 09:11:09;;;;;;;;;;;;;;;16.49;48.02;99252.69;5057674;28;19935;-78
2021/04/14 09:13:36;;;;;;;;;;;;;;;16.48;47.61;99266.25;5057578;28;19920;-77
2021/04/14 09:16:03;;;;;;;;;;;;;;;16.49;47.17;99262.53;5053255;28;19972;-78
2021/04/14 09:18:31;;;;;;;;;;;;;;;16.51;47.08;99255.94;5060327;28;19917;-77
2021/04/14 09:21:10;;;;;;;;;;;;;;;16.53;47.92;99263.72;5053708;28;19956;-77
2021/04/14 09:23:36;;;;;;;;;;;;;;;16.56;48.98;99257.94;5054840;28;20359;-77
2021/04/14 09:26:02;;;;;;;;;;;;;;;16.61;47.47;99251.94;5049859;28;19920;-76
2021/04/14 09:28:34;;;;;;;;;;;;;;;16.62;47.30;99254.38;5048522;28;19920;-77
2021/04/14 09:31:14;;;;;;;;;;;;;;;16.65;48.41;99250.47;5060653;28;20254;-77
2021/04/14 09:33:45;;;;;;;;;;;;;;;17.10;48.26;99243.75;5044858;28;20321;-77
2021/04/14 09:36:12;;;;;;;;;;;;;;;17.43;47.77;99237.09;5059408;28;19921;-77
2021/04/14 09:38:45;;;;;;;;;;;;;;;17.75;46.07;99230.41;5056772;28;19917;-78
2021/04/14 09:41:23;;;;;;;;;;;;;;;17.87;47.18;99222.44;5056222;28;19912;-79
2021/04/14 09:43:49;;;;;;;;;;;;;;;17.85;47.08;99221.03;5056394;28;19951;-78
2021/04/14 09:46:34;;;;;;;;;;;;;;;17.73;46.64;99223.69;5056982;28;19966;-75
2021/04/14 09:49:11;;;;;;;;;;;;;;;17.68;45.36;99216.34;5065100;28;19952;-78
2021/04/14 09:51:41;;;;;;;;;;;;;;;17.81;47.20;99215.31;5075548;28;19912;-75
2021/04/14 09:54:17;;;;;;;;;;;;;;;17.83;47.27;99212.41;5066961;28;19920;-77
2021/04/14 09:56:51;;;;;;;;;;;;;;;17.68;44.24;99211.03;5047316;28;19924;-77
2021/04/14 09:59:21;;;;;;;;;;;;;;;17.58;45.13;99217.94;5069567;28;19974;-77
2021/04/14 10:01:48;;;;;;;;;;;;;;;17.63;45.17;99210.88;5056947;28;19970;-79
2021/04/14 10:04:19;;;;;;;;;;;;;;;17.64;45.73;99220.50;5056603;28;19913;-76
2021/04/14 10:06:48;;;;;;;;;;;;;;;17.54;45.20;99220.28;5055380;28;19913;-77
2021/04/14 10:09:19;;;;;;;;;;;;;;;17.46;45.21;99220.59;5054657;28;19980;-77
2021/04/14 10:11:44;;;;;;;;;;;;;;;17.47;46.19;99206.22;5054877;28;19916;-76
2021/04/14 10:14:11;;;;;;;;;;;;;;;17.45;44.52;99200.31;5053733;28;20362;-76
2021/04/14 10:16:37;;;;;;;;;;;;;;;17.54;46.03;99195.44;5076442;28;19916;-77
2021/04/14 10:19:04;;;;;;;;;;;;;;;17.51;45.38;99195.91;5064683;28;20357;-76
2021/04/14 10:21:29;;;;;;;;;;;;;;;17.52;45.55;99193.00;5056747;28;20127;-77
2021/04/14 10:24:03;;;;;;;;;;;;;;;17.69;41.41;99190.47;5054945;28;20011;-76
2021/04/14 10:26:29;;;;;;;;;;;;;;;18.48;37.19;99183.63;5055598;28;19947;-78
2021/04/14 10:28:54;;;;;;;;;;;;;;;19.13;39.31;99183.22;5054800;28;19916;-76
2021/04/14 10:31:22;;;;;;;;;;;;;;;19.47;39.42;99180.59;5055208;28;20322;-78
2021/04/14 10:33:48;;;;;;;;;;;;;;;19.94;39.78;99181.84;5054644;28;20004;-77
2021/04/14 10:36:19;;;;;;;;;;;;;;;20.18;36.26;99169.03;5056090;28;19974;-78
2021/04/14 10:38:45;;;;;;;;;;;;;;;20.18;39.29;99182.44;5054178;28;19920;-76
2021/04/14 10:41:17;;;;;;;;;;;;;;;20.10;37.29;99174.03;5063697;28;19917;-76
2021/04/14 10:43:42;;;;;;;;;;;;;;;20.05;36.33;99176.59;5053229;28;19916;-78
2021/04/14 10:46:16;;;;;;;;;;;;;;;19.81;39.80;99184.06;5053329;28;20327;-77
2021/04/14 10:48:46;;;;;;;;;;;;;;;19.58;36.74;99175.16;5055135;28;20323;-77
2021/04/14 10:51:21;;;;;;;;;;;;;;;19.72;39.91;99180.19;5052044;28;19964;-76
2021/04/14 10:53:48;;;;;;;;;;;;;;;19.71;39.99;99174.00;5055382;28;19966;-77
2021/04/14 10:56:19;;;;;;;;;;;;;;;19.71;40.47;99171.34;5054915;28;19923;-77
2021/04/14 10:58:45;;;;;;;;;;;;;;;19.64;40.66;99163.47;5055583;28;20008;-77
2021/04/14 11:01:13;;;;;;;;;;;;;;;19.59;40.18;99160.72;5052563;28;20011;-77
2021/04/14 11:03:39;;;;;;;;;;;;;;;19.38;38.86;99157.97;5053834;28;19960;-77
2021/04/14 11:06:06;;;;;;;;;;;;;;;19.05;40.38;99160.34;5058006;28;19970;-76
2021/04/14 11:08:33;;;;;;;;;;;;;;;18.86;41.41;99164.31;5054612;28;19920;-76
2021/04/14 11:10:59;;;;;;;;;;;;;;;18.69;42.52;99161.59;5055467;28;19919;-77
2021/04/14 11:13:27;;;;;;;;;;;;;;;18.57;41.20;99163.47;5053895;28;19924;-78
2021/04/14 11:15:53;;;;;;;;;;;;;;;18.46;41.99;99177.69;5056540;28;19961;-79
2021/04/14 11:18:28;;;;;;;;;;;;;;;18.32;41.56;99174.47;5053724;28;19967;-78
2021/04/14 11:20:58;;;;;;;;;;;;;;;18.08;41.44;99188.94;5059000;28;19916;-78
2021/04/14 11:23:28;;;;;;;;;;;;;;;17.81;38.94;99185.13;5056305;28;19913;-77
2021/04/14 11:26:04;;;;;;;;;;;;;;;17.69;43.34;99183.28;5052472;28;19921;-77
2021/04/14 11:28:39;;;;;;;;;;;;;;;17.55;43.74;99181.84;5053197;28;20269;-77
2021/04/14 11:31:04;;;;;;;;;;;;;;;17.40;43.81;99190.31;5050085;28;19936;-77
2021/04/14 11:33:34;;;;;;;;;;;;;;;17.24;44.48;99184.84;5055978;28;20327;-76
2021/04/14 11:36:00;;;;;;;;;;;;;;;17.17;45.29;99184.13;5048913;28;19928;-76
2021/04/14 11:38:27;;;;;;;;;;;;;;;17.11;44.70;99178.69;5036299;28;19979;-77
2021/04/14 11:40:53;;;;;;;;;;;;;;;17.00;44.67;99191.97;5052015;28;19917;-79
2021/04/14 11:43:26;;;;;;;;;;;;;;;16.91;45.69;99186.13;5055160;28;19919;-78
2021/04/14 11:46:14;;;;;;;;;;;;;;;16.78;46.05;99192.47;5054764;28;20335;-76
2021/04/14 11:48:40;;;;;;;;;;;;;;;16.60;47.39;99195.16;5045557;28;20334;-77
2021/04/14 11:51:20;;;;;;;;;;;;;;;16.45;47.83;99198.22;5050192;28;19917;-77
2021/04/14 11:53:48;;;;;;;;;;;;;;;16.35;48.73;99199.75;5048222;28;19966;-76
2021/04/14 11:56:25;;;;;;;;;;;;;;;16.20;48.92;99208.13;5053863;28;20296;-75
2021/04/14 11:58:50;;;;;;;;;;;;;;;16.07;51.51;99206.44;5051232;28;19921;-78
2021/04/14 12:01:22;;;;;;;;;;;;;;;15.98;51.31;99183.78;5053181;28;20090;-76
2021/04/14 12:03:47;;;;;;;;;;;;;;;15.91;51.42;99136.97;5052413;28;19917;-76
2021/04/14 12:06:13;;;;;;;;;;;;;;;15.81;50.39;99114.34;5053043;28;20255;-75
2021/04/14 12:08:38;;;;;;;;;;;;;;;15.80;53.44;99128.69;5052794;28;19923;-74
2021/04/14 12:11:05;;;;;;;;;;;;;;;15.83;51.09;99146.88;5050970;28;19921;-77
2021/04/14 12:13:30;;;;;;;;;;;;;;;15.89;51.98;99151.31;5054721;28;20014;-78
2021/04/14 12:15:55;;;;;;;;;;;;;;;15.94;51.51;99150.66;5053367;28;19929;-75
2021/04/14 12:18:21;;;;;;;;;;;;;;;16.03;51.82;99167.16;5053315;28;19924;-78
2021/04/14 12:20:47;;;;;;;;;;;;;;;16.09;50.41;99166.25;5050019;28;19916;-77
2021/04/14 12:23:12;;;;;;;;;;;;;;;16.15;50.25;99162.69;5053391;28;19917;-76
2021/04/14 12:25:39;;;;;;;;;;;;;;;16.17;52.19;99152.63;5053834;28;20438;-76
2021/04/14 12:28:05;;;;;;;;;;;;;;;15.57;52.05;99056.63;5053973;28;19921;-74
2021/04/14 12:30:30;;;;;;;;;;;;;;;16.20;49.95;99165.50;5052561;28;19924;-76
2021/04/14 12:32:55;;;;;;;;;;;;;;;16.09;50.83;99169.75;5051384;28;20303;-77
2021/04/14 12:35:21;;;;;;;;;;;;;;;16.04;51.62;99166.94;5050897;28;20464;-77
2021/04/14 12:37:47;;;;;;;;;;;;;;;15.98;52.81;99167.00;5053185;28;20319;-77
2021/04/14 12:40:12;;;;;;;;;;;;;;;15.95;51.71;99170.09;5054166;28;19924;-77
2021/04/14 12:42:38;;;;;;;;;;;;;;;16.06;51.56;99172.03;5053758;28;19921;-78
2021/04/14 12:45:05;;;;;;;;;;;;;;;16.32;52.62;99186.88;5052444;28;20318;-76
2021/04/14 12:47:30;;;;;;;;;;;;;;;16.67;52.57;99176.44;5054342;28;19936;-77
2021/04/14 12:49:56;;;;;;;;;;;;;;;17.27;51.33;99174.53;5054158;28;19917;-77
2021/04/14 12:52:22;;;;;;;;;;;;;;;17.59;51.05;99174.19;5054209;28;19955;-76
2021/04/14 12:54:47;;;;;;;;;;;;;;;17.64;49.51;99176.97;5053546;28;19921;-74